Fort Wayne, IN (46802)

12:03 PM EST on December 21, 2014 (GMT -0500)
Hillegas Road, Ft.Wayne, IN | Change Station
CLOSE
Current Station
Personal Weather Station
Location: Fort Wayne, IN
Elevation: 823 ft
Nearby Weather Stations

Elev 823 ft 41.10 °N, 85.19 °W | Updated 14 minutes ago

Overcast
Overcast
32.0 °F
Feels Like 27 °F
N
4.7
Wind Variable Wind from South

Today
High -- | Low -- °F
--% Chance of Precip.
Yesterday
High -- | Low -- °F
Precip. -- in
8:02 AM 5:15 PM
Waning Crescent, 0% visible
Pressure 30.31 in
Visibility 4.0 miles
Clouds Overcast 5500 ft
Windchill 27 °F
Dew Point 27 °F
Humidity 81%
Rainfall 0.00 in
Snow Depth Not available.
UV 1 out of 12
Pollen .10 out of 12
Air Quality Not available.
Flu Activity Not available.
METAR KFWA 211654Z 18007KT 4SM HZ OVC055 00/M04 A3028 RMK AO2 SLP262 T00001039

More Conditions Fewer Conditions

Pressure 30.31 in
Visibility 4.0 miles
Clouds Overcast 5500 ft
Windchill 27 °F
Dew Point 27 °F
Humidity 81%
Rainfall 0.00 in
Snow Depth Not available.
UV 1 out of 12
Pollen .10 out of 12
Air Quality Not available.
Flu Activity Not available.
METAR KFWA 211654Z 18007KT 4SM HZ OVC055 00/M04 A3028 RMK AO2 SLP262 T00001039

More Conditions Fewer Conditions

10-Day Weather Forecast

Almanac

Astronomy

Dec. 21, 2014 Rise Set
Actual Time
Civil Twilight
Nautical Twilight
Astronomical Twilight
Moon
Length of Visible Light
Length of Day
Tomorrow will be .
, % of the Moon is Illuminated

Today's Extremes

State Highs State Lows

Community

WunderPhotos

Upload Photos

1,779,441 photos uploaded!

WunderBlogs® & News

Nearby

Air Quality

  Air Quality AQ Index Pollutant
Not available.

Snow Depth

Station Depth Elevation

Earthquake Activity

City Distance Mag. Time & Date
Minimum magnitude displayed is 2.5.

Coastal Water Temperatures

Place Temperature

Nearby Weather Stations